sensor_id;sensor_type;location;lat;lon;timestamp;P1;durP1;ratioP1;P2;durP2;ratioP2
3267;SDS011;1646;52.450;13.326;2024-02-04T00:00:15;12.87;;;2.27;;
3267;SDS011;1646;52.450;13.326;2024-02-04T00:05:14;9.77;;;2.60;;
3267;SDS011;1646;52.450;13.326;2024-02-04T00:10:16;8.93;;;1.83;;
3267;SDS011;1646;52.450;13.326;2024-02-04T00:15:15;6.13;;;2.37;;
3267;SDS011;1646;52.450;13.326;2024-02-04T00:20:13;7.47;;;1.93;;
3267;SDS011;1646;52.450;13.326;2024-02-04T00:25:12;5.60;;;1.70;;
3267;SDS011;1646;52.450;13.326;2024-02-04T00:30:13;11.70;;;2.10;;
3267;SDS011;1646;52.450;13.326;2024-02-04T00:35:11;6.87;;;1.90;;
3267;SDS011;1646;52.450;13.326;2024-02-04T00:40:10;12.70;;;2.40;;
3267;SDS011;1646;52.450;13.326;2024-02-04T00:45:09;4.87;;;2.10;;
3267;SDS011;1646;52.450;13.326;2024-02-04T00:50:09;10.70;;;2.53;;
3267;SDS011;1646;52.450;13.326;2024-02-04T00:55:08;14.67;;;2.60;;
3267;SDS011;1646;52.450;13.326;2024-02-04T01:00:07;7.00;;;1.80;;
3267;SDS011;1646;52.450;13.326;2024-02-04T01:05:06;5.90;;;1.80;;
3267;SDS011;1646;52.450;13.326;2024-02-04T01:10:07;8.43;;;2.13;;
3267;SDS011;1646;52.450;13.326;2024-02-04T01:15:06;11.57;;;2.60;;
3267;SDS011;1646;52.450;13.326;2024-02-04T01:20:05;8.03;;;2.20;;
3267;SDS011;1646;52.450;13.326;2024-02-04T01:25:06;13.77;;;2.83;;
3267;SDS011;1646;52.450;13.326;2024-02-04T01:30:06;14.50;;;2.27;;
3267;SDS011;1646;52.450;13.326;2024-02-04T01:35:05;14.43;;;2.77;;
3267;SDS011;1646;52.450;13.326;2024-02-04T01:40:06;8.13;;;2.00;;
3267;SDS011;1646;52.450;13.326;2024-02-04T01:45:06;10.33;;;2.47;;
3267;SDS011;1646;52.450;13.326;2024-02-04T01:50:05;10.20;;;2.10;;
3267;SDS011;1646;52.450;13.326;2024-02-04T01:55:06;15.03;;;2.50;;
3267;SDS011;1646;52.450;13.326;2024-02-04T02:00:05;10.50;;;3.40;;
3267;SDS011;1646;52.450;13.326;2024-02-04T02:05:06;6.60;;;2.43;;
3267;SDS011;1646;52.450;13.326;2024-02-04T02:10:07;7.70;;;1.97;;
3267;SDS011;1646;52.450;13.326;2024-02-04T02:15:10;6.93;;;2.50;;
3267;SDS011;1646;52.450;13.326;2024-02-04T02:20:12;8.43;;;1.80;;
3267;SDS011;1646;52.450;13.326;2024-02-04T02:25:20;10.63;;;2.87;;
3267;SDS011;1646;52.450;13.326;2024-02-04T02:30:19;14.53;;;2.77;;
3267;SDS011;1646;52.450;13.326;2024-02-04T02:35:18;13.10;;;2.70;;
3267;SDS011;1646;52.450;13.326;2024-02-04T02:40:21;9.97;;;1.87;;
3267;SDS011;1646;52.450;13.326;2024-02-04T02:45:23;10.63;;;3.10;;
3267;SDS011;1646;52.450;13.326;2024-02-04T02:50:23;13.60;;;2.83;;
3267;SDS011;1646;52.450;13.326;2024-02-04T02:55:23;5.20;;;2.30;;
3267;SDS011;1646;52.450;13.326;2024-02-04T03:00:21;14.00;;;2.80;;
3267;SDS011;1646;52.450;13.326;2024-02-04T03:05:20;10.33;;;2.33;;
3267;SDS011;1646;52.450;13.326;2024-02-04T03:10:18;12.03;;;2.83;;
3267;SDS011;1646;52.450;13.326;2024-02-04T03:15:18;10.43;;;2.30;;
3267;SDS011;1646;52.450;13.326;2024-02-04T03:20:16;17.93;;;3.23;;
3267;SDS011;1646;52.450;13.326;2024-02-04T03:25:15;5.73;;;2.30;;
3267;SDS011;1646;52.450;13.326;2024-02-04T03:30:13;7.37;;;2.53;;
3267;SDS011;1646;52.450;13.326;2024-02-04T03:35:14;9.00;;;3.47;;
3267;SDS011;1646;52.450;13.326;2024-02-04T03:40:13;8.73;;;2.43;;
3267;SDS011;1646;52.450;13.326;2024-02-04T03:45:11;11.97;;;3.10;;
3267;SDS011;1646;52.450;13.326;2024-02-04T03:50:10;11.93;;;2.73;;
3267;SDS011;1646;52.450;13.326;2024-02-04T03:55:09;6.87;;;3.20;;
3267;SDS011;1646;52.450;13.326;2024-02-04T04:00:08;4.83;;;2.60;;
3267;SDS011;1646;52.450;13.326;2024-02-04T04:05:10;15.37;;;2.90;;
3267;SDS011;1646;52.450;13.326;2024-02-04T04:10:11;7.80;;;2.77;;
3267;SDS011;1646;52.450;13.326;2024-02-04T04:15:09;10.23;;;2.60;;
3267;SDS011;1646;52.450;13.326;2024-02-04T04:20:07;12.13;;;2.30;;
3267;SDS011;1646;52.450;13.326;2024-02-04T04:25:06;9.50;;;1.90;;
3267;SDS011;1646;52.450;13.326;2024-02-04T04:30:07;3.20;;;2.10;;
3267;SDS011;1646;52.450;13.326;2024-02-04T04:35:07;10.53;;;2.07;;
3267;SDS011;1646;52.450;13.326;2024-02-04T04:40:06;11.90;;;2.73;;
3267;SDS011;1646;52.450;13.326;2024-02-04T04:45:07;8.53;;;2.10;;
3267;SDS011;1646;52.450;13.326;2024-02-04T04:50:05;6.10;;;2.40;;
3267;SDS011;1646;52.450;13.326;2024-02-04T04:55:04;6.37;;;3.03;;
3267;SDS011;1646;52.450;13.326;2024-02-04T05:00:04;7.13;;;1.97;;
3267;SDS011;1646;52.450;13.326;2024-02-04T05:05:06;6.37;;;1.90;;
3267;SDS011;1646;52.450;13.326;2024-02-04T05:10:05;8.80;;;2.20;;
3267;SDS011;1646;52.450;13.326;2024-02-04T05:15:04;5.93;;;2.20;;
3267;SDS011;1646;52.450;13.326;2024-02-04T05:20:05;6.43;;;2.57;;
3267;SDS011;1646;52.450;13.326;2024-02-04T05:25:04;6.80;;;1.90;;
3267;SDS011;1646;52.450;13.326;2024-02-04T05:30:03;7.50;;;2.20;;
3267;SDS011;1646;52.450;13.326;2024-02-04T05:35:04;5.60;;;2.17;;
3267;SDS011;1646;52.450;13.326;2024-02-04T05:40:05;14.33;;;4.53;;
3267;SDS011;1646;52.450;13.326;2024-02-04T05:45:04;12.97;;;3.00;;
3267;SDS011;1646;52.450;13.326;2024-02-04T05:50:05;4.63;;;2.33;;
3267;SDS011;1646;52.450;13.326;2024-02-04T05:55:04;10.53;;;3.17;;
3267;SDS011;1646;52.450;13.326;2024-02-04T06:00:04;8.50;;;2.90;;
3267;SDS011;1646;52.450;13.326;2024-02-04T06:05:06;10.50;;;2.50;;
3267;SDS011;1646;52.450;13.326;2024-02-04T06:10:08;13.60;;;2.80;;
3267;SDS011;1646;52.450;13.326;2024-02-04T06:15:11;9.47;;;2.67;;
3267;SDS011;1646;52.450;13.326;2024-02-04T06:20:11;14.87;;;3.63;;
3267;SDS011;1646;52.450;13.326;2024-02-04T06:25:10;7.37;;;2.60;;
3267;SDS011;1646;52.450;13.326;2024-02-04T06:30:09;6.63;;;2.60;;
3267;SDS011;1646;52.450;13.326;2024-02-04T06:35:08;7.83;;;3.70;;
3267;SDS011;1646;52.450;13.326;2024-02-04T06:40:09;9.03;;;3.30;;
3267;SDS011;1646;52.450;13.326;2024-02-04T06:45:09;10.90;;;4.53;;
3267;SDS011;1646;52.450;13.326;2024-02-04T06:50:07;9.47;;;4.17;;
3267;SDS011;1646;52.450;13.326;2024-02-04T06:55:11;22.03;;;4.13;;
3267;SDS011;1646;52.450;13.326;2024-02-04T07:00:10;15.13;;;4.50;;
3267;SDS011;1646;52.450;13.326;2024-02-04T07:05:09;7.03;;;3.97;;
3267;SDS011;1646;52.450;13.326;2024-02-04T07:10:08;12.20;;;4.80;;
3267;SDS011;1646;52.450;13.326;2024-02-04T07:15:08;13.60;;;4.57;;
3267;SDS011;1646;52.450;13.326;2024-02-04T07:20:07;11.80;;;4.27;;
3267;SDS011;1646;52.450;13.326;2024-02-04T07:25:06;12.00;;;4.00;;
3267;SDS011;1646;52.450;13.326;2024-02-04T07:30:23;11.87;;;4.00;;
3267;SDS011;1646;52.450;13.326;2024-02-04T07:35:22;7.53;;;4.20;;
3267;SDS011;1646;52.450;13.326;2024-02-04T07:40:20;11.30;;;4.50;;
3267;SDS011;1646;52.450;13.326;2024-02-04T07:45:18;9.90;;;4.40;;
3267;SDS011;1646;52.450;13.326;2024-02-04T07:50:18;9.30;;;3.80;;
3267;SDS011;1646;52.450;13.326;2024-02-04T07:55:16;11.60;;;3.97;;
3267;SDS011;1646;52.450;13.326;2024-02-04T08:00:15;14.67;;;4.77;;
3267;SDS011;1646;52.450;13.326;2024-02-04T08:05:14;13.47;;;3.70;;
3267;SDS011;1646;52.450;13.326;2024-02-04T08:10:13;9.63;;;4.00;;
3267;SDS011;1646;52.450;13.326;2024-02-04T08:15:13;11.70;;;4.40;;
3267;SDS011;1646;52.450;13.326;2024-02-04T08:20:11;7.43;;;3.60;;
3267;SDS011;1646;52.450;13.326;2024-02-04T08:25:10;8.60;;;4.10;;
3267;SDS011;1646;52.450;13.326;2024-02-04T08:30:10;7.20;;;3.20;;
3267;SDS011;1646;52.450;13.326;2024-02-04T08:35:09;8.10;;;2.83;;
3267;SDS011;1646;52.450;13.326;2024-02-04T08:40:08;7.23;;;3.03;;
3267;SDS011;1646;52.450;13.326;2024-02-04T08:45:08;8.07;;;3.03;;
3267;SDS011;1646;52.450;13.326;2024-02-04T08:50:09;7.27;;;2.63;;
3267;SDS011;1646;52.450;13.326;2024-02-04T08:55:08;10.23;;;2.57;;
3267;SDS011;1646;52.450;13.326;2024-02-04T09:00:07;20.60;;;3.53;;
3267;SDS011;1646;52.450;13.326;2024-02-04T09:05:09;8.17;;;2.60;;
3267;SDS011;1646;52.450;13.326;2024-02-04T09:10:08;18.60;;;2.53;;
3267;SDS011;1646;52.450;13.326;2024-02-04T09:15:07;13.17;;;2.87;;
3267;SDS011;1646;52.450;13.326;2024-02-04T09:20:06;7.40;;;2.10;;
3267;SDS011;1646;52.450;13.326;2024-02-04T09:25:07;14.03;;;3.53;;
3267;SDS011;1646;52.450;13.326;2024-02-04T09:30:06;2.90;;;1.60;;
3267;SDS011;1646;52.450;13.326;2024-02-04T09:35:05;8.70;;;2.00;;
3267;SDS011;1646;52.450;13.326;2024-02-04T09:40:04;9.57;;;2.03;;
3267;SDS011;1646;52.450;13.326;2024-02-04T09:45:06;11.10;;;2.00;;
3267;SDS011;1646;52.450;13.326;2024-02-04T09:50:05;9.00;;;1.93;;
3267;SDS011;1646;52.450;13.326;2024-02-04T09:55:04;7.20;;;2.27;;
3267;SDS011;1646;52.450;13.326;2024-02-04T10:00:09;6.57;;;1.70;;
3267;SDS011;1646;52.450;13.326;2024-02-04T10:05:09;8.20;;;2.30;;
3267;SDS011;1646;52.450;13.326;2024-02-04T10:10:08;4.77;;;1.40;;
3267;SDS011;1646;52.450;13.326;2024-02-04T10:15:10;5.13;;;1.60;;
3267;SDS011;1646;52.450;13.326;2024-02-04T10:20:10;7.70;;;1.50;;
3267;SDS011;1646;52.450;13.326;2024-02-04T10:25:12;15.90;;;2.57;;
3267;SDS011;1646;52.450;13.326;2024-02-04T10:30:14;9.53;;;2.20;;
3267;SDS011;1646;52.450;13.326;2024-02-04T10:35:12;8.30;;;1.40;;
3267;SDS011;1646;52.450;13.326;2024-02-04T10:40:11;8.43;;;1.30;;
3267;SDS011;1646;52.450;13.326;2024-02-04T10:45:10;7.13;;;1.67;;
3267;SDS011;1646;52.450;13.326;2024-02-04T10:50:10;8.53;;;2.93;;
3267;SDS011;1646;52.450;13.326;2024-02-04T10:55:11;19.97;;;2.10;;
3267;SDS011;1646;52.450;13.326;2024-02-04T11:00:10;6.57;;;1.80;;
3267;SDS011;1646;52.450;13.326;2024-02-04T11:05:10;7.70;;;1.60;;
3267;SDS011;1646;52.450;13.326;2024-02-04T11:10:10;3.40;;;1.13;;
3267;SDS011;1646;52.450;13.326;2024-02-04T11:15:09;6.07;;;1.53;;
3267;SDS011;1646;52.450;13.326;2024-02-04T11:20:15;2.47;;;1.33;;
3267;SDS011;1646;52.450;13.326;2024-02-04T11:25:41;6.80;;;1.87;;
3267;SDS011;1646;52.450;13.326;2024-02-04T11:30:42;4.13;;;1.50;;
3267;SDS011;1646;52.450;13.326;2024-02-04T11:35:42;3.87;;;2.37;;
3267;SDS011;1646;52.450;13.326;2024-02-04T11:40:41;5.20;;;1.73;;
3267;SDS011;1646;52.450;13.326;2024-02-04T11:45:41;7.63;;;1.43;;
3267;SDS011;1646;52.450;13.326;2024-02-04T11:50:40;5.00;;;1.90;;
3267;SDS011;1646;52.450;13.326;2024-02-04T11:55:40;4.90;;;1.50;;
3267;SDS011;1646;52.450;13.326;2024-02-04T12:00:42;7.00;;;1.20;;
3267;SDS011;1646;52.450;13.326;2024-02-04T12:05:43;9.37;;;1.50;;
3267;SDS011;1646;52.450;13.326;2024-02-04T12:10:42;16.80;;;2.40;;
3267;SDS011;1646;52.450;13.326;2024-02-04T12:15:40;10.10;;;2.03;;
3267;SDS011;1646;52.450;13.326;2024-02-04T12:20:40;8.57;;;1.73;;
3267;SDS011;1646;52.450;13.326;2024-02-04T12:25:39;10.23;;;1.50;;
3267;SDS011;1646;52.450;13.326;2024-02-04T12:30:40;2.90;;;1.17;;
3267;SDS011;1646;52.450;13.326;2024-02-04T12:35:38;5.03;;;1.43;;
3267;SDS011;1646;52.450;13.326;2024-02-04T12:40:39;5.90;;;1.50;;
3267;SDS011;1646;52.450;13.326;2024-02-04T12:45:37;3.60;;;1.23;;
3267;SDS011;1646;52.450;13.326;2024-02-04T12:50:36;15.07;;;1.80;;
3267;SDS011;1646;52.450;13.326;2024-02-04T12:55:35;10.30;;;1.60;;
3267;SDS011;1646;52.450;13.326;2024-02-04T13:00:36;5.90;;;1.40;;
3267;SDS011;1646;52.450;13.326;2024-02-04T13:05:35;7.50;;;1.57;;
3267;SDS011;1646;52.450;13.326;2024-02-04T13:10:35;7.53;;;1.27;;
3267;SDS011;1646;52.450;13.326;2024-02-04T13:15:36;6.37;;;1.10;;
3267;SDS011;1646;52.450;13.326;2024-02-04T13:20:35;7.00;;;2.20;;
3267;SDS011;1646;52.450;13.326;2024-02-04T13:25:34;6.97;;;1.30;;
3267;SDS011;1646;52.450;13.326;2024-02-04T13:30:33;5.73;;;1.60;;
3267;SDS011;1646;52.450;13.326;2024-02-04T13:35:32;5.07;;;1.80;;
3267;SDS011;1646;52.450;13.326;2024-02-04T13:40:31;9.83;;;1.90;;
3267;SDS011;1646;52.450;13.326;2024-02-04T13:45:29;9.47;;;1.70;;
3267;SDS011;1646;52.450;13.326;2024-02-04T13:50:27;7.70;;;1.70;;
3267;SDS011;1646;52.450;13.326;2024-02-04T13:55:28;6.73;;;2.40;;
3267;SDS011;1646;52.450;13.326;2024-02-04T14:00:26;10.67;;;3.10;;
3267;SDS011;1646;52.450;13.326;2024-02-04T14:05:25;8.13;;;2.17;;
3267;SDS011;1646;52.450;13.326;2024-02-04T14:10:23;8.10;;;1.77;;
3267;SDS011;1646;52.450;13.326;2024-02-04T14:15:22;10.83;;;1.97;;
3267;SDS011;1646;52.450;13.326;2024-02-04T14:20:21;5.27;;;2.40;;
3267;SDS011;1646;52.450;13.326;2024-02-04T14:25:20;7.23;;;1.97;;
3267;SDS011;1646;52.450;13.326;2024-02-04T14:30:26;9.63;;;1.60;;
3267;SDS011;1646;52.450;13.326;2024-02-04T14:35:24;8.70;;;2.67;;
3267;SDS011;1646;52.450;13.326;2024-02-04T14:40:23;12.93;;;2.20;;
3267;SDS011;1646;52.450;13.326;2024-02-04T14:45:21;7.57;;;1.97;;
3267;SDS011;1646;52.450;13.326;2024-02-04T14:50:21;7.13;;;1.70;;
3267;SDS011;1646;52.450;13.326;2024-02-04T14:55:19;6.87;;;1.60;;
3267;SDS011;1646;52.450;13.326;2024-02-04T15:00:18;13.10;;;1.73;;
3267;SDS011;1646;52.450;13.326;2024-02-04T15:05:17;9.87;;;2.20;;
3267;SDS011;1646;52.450;13.326;2024-02-04T15:10:19;6.67;;;2.37;;
3267;SDS011;1646;52.450;13.326;2024-02-04T15:15:18;6.03;;;1.60;;
3267;SDS011;1646;52.450;13.326;2024-02-04T15:20:17;7.27;;;1.77;;
3267;SDS011;1646;52.450;13.326;2024-02-04T15:25:18;6.30;;;1.80;;
3267;SDS011;1646;52.450;13.326;2024-02-04T15:30:18;11.20;;;2.50;;
3267;SDS011;1646;52.450;13.326;2024-02-04T15:35:18;4.00;;;1.50;;
3267;SDS011;1646;52.450;13.326;2024-02-04T15:40:17;5.80;;;1.60;;
3267;SDS011;1646;52.450;13.326;2024-02-04T15:45:17;12.80;;;2.17;;
3267;SDS011;1646;52.450;13.326;2024-02-04T15:50:33;3.93;;;1.57;;
3267;SDS011;1646;52.450;13.326;2024-02-04T15:55:34;9.77;;;1.87;;
3267;SDS011;1646;52.450;13.326;2024-02-04T16:00:35;7.00;;;1.97;;
3267;SDS011;1646;52.450;13.326;2024-02-04T16:05:33;3.57;;;1.47;;
3267;SDS011;1646;52.450;13.326;2024-02-04T16:10:32;9.73;;;2.00;;
3267;SDS011;1646;52.450;13.326;2024-02-04T16:15:31;12.03;;;1.90;;
3267;SDS011;1646;52.450;13.326;2024-02-04T16:20:32;9.10;;;1.80;;
3267;SDS011;1646;52.450;13.326;2024-02-04T16:25:35;4.63;;;1.70;;
3267;SDS011;1646;52.450;13.326;2024-02-04T16:30:34;4.93;;;1.93;;
3267;SDS011;1646;52.450;13.326;2024-02-04T16:35:33;6.30;;;1.77;;
3267;SDS011;1646;52.450;13.326;2024-02-04T16:40:33;9.10;;;2.07;;
3267;SDS011;1646;52.450;13.326;2024-02-04T16:45:31;4.87;;;1.87;;
3267;SDS011;1646;52.450;13.326;2024-02-04T16:50:30;9.47;;;2.00;;
3267;SDS011;1646;52.450;13.326;2024-02-04T16:55:30;5.93;;;1.97;;
3267;SDS011;1646;52.450;13.326;2024-02-04T17:00:28;7.50;;;1.90;;
3267;SDS011;1646;52.450;13.326;2024-02-04T17:05:28;7.43;;;2.53;;
3267;SDS011;1646;52.450;13.326;2024-02-04T17:10:48;7.40;;;1.70;;
3267;SDS011;1646;52.450;13.326;2024-02-04T17:15:48;3.87;;;1.40;;
3267;SDS011;1646;52.450;13.326;2024-02-04T17:20:47;9.10;;;1.50;;
3267;SDS011;1646;52.450;13.326;2024-02-04T17:25:52;4.60;;;1.40;;
3267;SDS011;1646;52.450;13.326;2024-02-04T17:30:57;6.10;;;1.97;;
3267;SDS011;1646;52.450;13.326;2024-02-04T17:35:56;8.00;;;1.60;;
3267;SDS011;1646;52.450;13.326;2024-02-04T17:40:56;11.07;;;2.30;;
3267;SDS011;1646;52.450;13.326;2024-02-04T17:45:54;5.83;;;1.70;;
3267;SDS011;1646;52.450;13.326;2024-02-04T17:50:52;5.40;;;1.73;;
3267;SDS011;1646;52.450;13.326;2024-02-04T17:56:07;9.40;;;2.23;;
3267;SDS011;1646;52.450;13.326;2024-02-04T18:01:05;12.07;;;2.00;;
3267;SDS011;1646;52.450;13.326;2024-02-04T18:06:04;7.10;;;1.83;;
3267;SDS011;1646;52.450;13.326;2024-02-04T18:11:02;6.50;;;1.93;;
3267;SDS011;1646;52.450;13.326;2024-02-04T18:16:07;9.13;;;2.20;;
3267;SDS011;1646;52.450;13.326;2024-02-04T18:21:15;5.67;;;1.47;;
3267;SDS011;1646;52.450;13.326;2024-02-04T18:26:21;7.47;;;1.57;;
3267;SDS011;1646;52.450;13.326;2024-02-04T18:31:21;9.90;;;2.10;;
3267;SDS011;1646;52.450;13.326;2024-02-04T18:36:21;3.20;;;1.70;;
3267;SDS011;1646;52.450;13.326;2024-02-04T18:41:21;2.03;;;1.30;;
3267;SDS011;1646;52.450;13.326;2024-02-04T18:46:19;6.20;;;1.53;;
3267;SDS011;1646;52.450;13.326;2024-02-04T18:51:19;4.43;;;1.50;;
3267;SDS011;1646;52.450;13.326;2024-02-04T18:56:18;3.57;;;1.37;;
3267;SDS011;1646;52.450;13.326;2024-02-04T19:01:16;3.33;;;1.33;;
3267;SDS011;1646;52.450;13.326;2024-02-04T19:06:25;3.90;;;1.43;;
3267;SDS011;1646;52.450;13.326;2024-02-04T19:11:23;1.30;;;0.90;;
3267;SDS011;1646;52.450;13.326;2024-02-04T19:16:22;6.00;;;2.13;;
3267;SDS011;1646;52.450;13.326;2024-02-04T19:21:21;2.90;;;1.20;;
3267;SDS011;1646;52.450;13.326;2024-02-04T19:26:26;6.63;;;1.07;;
3267;SDS011;1646;52.450;13.326;2024-02-04T19:31:26;2.80;;;1.27;;
3267;SDS011;1646;52.450;13.326;2024-02-04T19:36:24;2.73;;;1.67;;
3267;SDS011;1646;52.450;13.326;2024-02-04T19:41:24;1.83;;;1.40;;
3267;SDS011;1646;52.450;13.326;2024-02-04T19:46:22;4.73;;;1.60;;
3267;SDS011;1646;52.450;13.326;2024-02-04T19:51:20;5.00;;;1.87;;
3267;SDS011;1646;52.450;13.326;2024-02-04T19:56:19;2.40;;;1.30;;
3267;SDS011;1646;52.450;13.326;2024-02-04T20:01:20;1.77;;;1.53;;
3267;SDS011;1646;52.450;13.326;2024-02-04T20:06:18;5.47;;;1.73;;
3267;SDS011;1646;52.450;13.326;2024-02-04T20:11:17;5.82;;;1.45;;
3267;SDS011;1646;52.450;13.326;2024-02-04T20:16:15;1.97;;;1.60;;
3267;SDS011;1646;52.450;13.326;2024-02-04T20:21:15;3.07;;;1.40;;
3267;SDS011;1646;52.450;13.326;2024-02-04T20:26:14;5.30;;;1.83;;
3267;SDS011;1646;52.450;13.326;2024-02-04T20:31:12;2.50;;;1.60;;
3267;SDS011;1646;52.450;13.326;2024-02-04T20:36:10;4.67;;;1.93;;
3267;SDS011;1646;52.450;13.326;2024-02-04T20:41:10;3.63;;;1.27;;
3267;SDS011;1646;52.450;13.326;2024-02-04T20:46:09;2.60;;;1.47;;
3267;SDS011;1646;52.450;13.326;2024-02-04T20:51:07;2.10;;;1.20;;
3267;SDS011;1646;52.450;13.326;2024-02-04T20:56:07;5.30;;;1.27;;
3267;SDS011;1646;52.450;13.326;2024-02-04T21:01:07;6.73;;;1.47;;
3267;SDS011;1646;52.450;13.326;2024-02-04T21:06:07;2.90;;;1.40;;
3267;SDS011;1646;52.450;13.326;2024-02-04T21:11:09;1.20;;;1.10;;
3267;SDS011;1646;52.450;13.326;2024-02-04T21:16:17;1.30;;;1.10;;
3267;SDS011;1646;52.450;13.326;2024-02-04T21:21:15;2.30;;;1.33;;
3267;SDS011;1646;52.450;13.326;2024-02-04T21:26:14;6.83;;;1.73;;
3267;SDS011;1646;52.450;13.326;2024-02-04T21:31:12;7.23;;;1.50;;
3267;SDS011;1646;52.450;13.326;2024-02-04T21:36:12;4.20;;;1.60;;
3267;SDS011;1646;52.450;13.326;2024-02-04T21:41:16;2.13;;;1.77;;
3267;SDS011;1646;52.450;13.326;2024-02-04T21:46:15;5.03;;;1.60;;
3267;SDS011;1646;52.450;13.326;2024-02-04T21:51:16;1.70;;;1.60;;
3267;SDS011;1646;52.450;13.326;2024-02-04T21:56:14;2.17;;;1.87;;
3267;SDS011;1646;52.450;13.326;2024-02-04T22:01:12;3.83;;;1.80;;
3267;SDS011;1646;52.450;13.326;2024-02-04T22:06:11;4.50;;;1.80;;
3267;SDS011;1646;52.450;13.326;2024-02-04T22:11:10;2.90;;;2.17;;
3267;SDS011;1646;52.450;13.326;2024-02-04T22:16:09;4.80;;;1.97;;
3267;SDS011;1646;52.450;13.326;2024-02-04T22:21:07;4.10;;;1.70;;
3267;SDS011;1646;52.450;13.326;2024-02-04T22:26:08;5.43;;;2.37;;
3267;SDS011;1646;52.450;13.326;2024-02-04T22:31:08;3.60;;;2.50;;
3267;SDS011;1646;52.450;13.326;2024-02-04T22:36:06;4.83;;;3.17;;
3267;SDS011;1646;52.450;13.326;2024-02-04T22:41:04;4.67;;;2.87;;
3267;SDS011;1646;52.450;13.326;2024-02-04T22:46:04;2.80;;;2.60;;
3267;SDS011;1646;52.450;13.326;2024-02-04T22:51:04;4.67;;;2.93;;
3267;SDS011;1646;52.450;13.326;2024-02-04T22:56:03;3.77;;;3.30;;
3267;SDS011;1646;52.450;13.326;2024-02-04T23:01:04;3.10;;;2.87;;
3267;SDS011;1646;52.450;13.326;2024-02-04T23:06:04;3.20;;;2.90;;
3267;SDS011;1646;52.450;13.326;2024-02-04T23:11:03;5.20;;;4.17;;
3267;SDS011;1646;52.450;13.326;2024-02-04T23:16:01;3.90;;;3.07;;
3267;SDS011;1646;52.450;13.326;2024-02-04T23:21:02;5.60;;;3.37;;
3267;SDS011;1646;52.450;13.326;2024-02-04T23:26:02;4.40;;;3.30;;
3267;SDS011;1646;52.450;13.326;2024-02-04T23:31:01;7.50;;;4.43;;
3267;SDS011;1646;52.450;13.326;2024-02-04T23:35:59;6.83;;;4.00;;
3267;SDS011;1646;52.450;13.326;2024-02-04T23:40:59;4.60;;;4.00;;
3267;SDS011;1646;52.450;13.326;2024-02-04T23:45:58;5.40;;;4.33;;
3267;SDS011;1646;52.450;13.326;2024-02-04T23:50:56;5.03;;;4.00;;
3267;SDS011;1646;52.450;13.326;2024-02-04T23:55:55;4.90;;;4.17;;
